createdAt,value
2018-06-11T00:02:04.895Z,98920.08
2018-06-11T00:04:33.488Z,98922.08
2018-06-11T00:07:02.052Z,98920.19
2018-06-11T00:09:30.651Z,98917.67
2018-06-11T00:11:59.241Z,98912.27
2018-06-11T00:14:27.820Z,98916.01
2018-06-11T00:16:56.407Z,98912.20
2018-06-11T00:19:24.996Z,98914.25
2018-06-11T00:21:53.601Z,98922.53
2018-06-11T00:24:22.154Z,98922.97
2018-06-11T00:26:50.734Z,98919.03
2018-06-11T00:29:19.296Z,98918.63
2018-06-11T00:31:47.907Z,98918.63
2018-06-11T00:34:16.546Z,98917.07
2018-06-11T00:36:45.112Z,98925.35
2018-06-11T00:39:14.198Z,98925.26
2018-06-11T00:41:42.781Z,98923.37
2018-06-11T00:44:11.353Z,98921.17
2018-06-11T00:46:39.906Z,98921.79
2018-06-11T00:49:08.521Z,98920.61
2018-06-11T00:51:37.109Z,98921.20
2018-06-11T00:54:05.825Z,98919.13
2018-06-11T00:56:34.413Z,98925.92
2018-06-11T00:59:02.982Z,98929.50
2018-06-11T01:01:31.537Z,98924.03
2018-06-11T01:04:00.161Z,98926.26
2018-06-11T01:06:28.729Z,98933.39
2018-06-11T01:08:57.341Z,98934.42
2018-06-11T01:11:25.920Z,98933.30
2018-06-11T01:13:54.583Z,98928.85
2018-06-11T01:16:23.245Z,98928.61
2018-06-11T01:18:51.868Z,98928.02
2018-06-11T01:21:20.470Z,98931.91
2018-06-11T01:23:49.051Z,98933.67
2018-06-11T01:26:17.629Z,98930.59
2018-06-11T01:28:46.208Z,98930.56
2018-06-11T01:31:14.793Z,98926.08
2018-06-11T01:33:43.433Z,98934.12
2018-06-11T01:36:12.050Z,98922.61
2018-06-11T01:38:40.608Z,98924.50
2018-06-11T01:41:09.225Z,98920.48
2018-06-11T01:43:37.776Z,98922.28
2018-06-11T01:46:06.361Z,98925.68
2018-06-11T01:48:34.957Z,98920.82
2018-06-11T01:51:03.577Z,98921.77
2018-06-11T01:53:32.146Z,98913.01
2018-06-11T01:56:00.824Z,98914.31
2018-06-11T01:58:29.461Z,98911.84
2018-06-11T02:00:58.045Z,98907.99
2018-06-11T02:03:26.627Z,98914.03
2018-06-11T02:05:55.231Z,98915.44
2018-06-11T02:08:23.821Z,98924.13
2018-06-11T02:10:52.394Z,98924.25
2018-06-11T02:13:20.990Z,98920.96
2018-06-11T02:15:49.563Z,98926.06
2018-06-11T02:18:18.109Z,98927.21
2018-06-11T02:20:48.101Z,98920.36
2018-06-11T02:23:16.693Z,98928.41
2018-06-11T02:25:45.377Z,98917.41
2018-06-11T02:28:14.048Z,98904.68
2018-06-11T02:30:42.624Z,98910.31
2018-06-11T02:33:11.229Z,98919.45
2018-06-11T02:35:39.892Z,98920.59
2018-06-11T02:38:08.498Z,98919.64
2018-06-11T02:40:37.102Z,98919.37
2018-06-11T02:43:05.887Z,98922.16
2018-06-11T02:45:34.462Z,98927.21
2018-06-11T02:48:03.069Z,98928.78
2018-06-11T02:50:31.701Z,98934.00
2018-06-11T02:53:00.272Z,98935.76
2018-06-11T02:55:28.879Z,98932.47
2018-06-11T02:57:57.514Z,98929.11
2018-06-11T03:00:26.100Z,98928.41
2018-06-11T03:02:54.786Z,98930.03
2018-06-11T03:05:23.357Z,98928.61
2018-06-11T03:07:51.952Z,98929.97
2018-06-11T03:10:20.572Z,98926.17
2018-06-11T03:12:49.215Z,98931.67
2018-06-11T03:15:17.809Z,98941.14
2018-06-11T03:17:46.374Z,98933.97
2018-06-11T03:20:14.949Z,98940.26
2018-06-11T03:22:43.523Z,98945.34
2018-06-11T03:25:12.100Z,98942.80
2018-06-11T03:27:40.653Z,98948.19
2018-06-11T03:30:09.258Z,98952.78
2018-06-11T03:32:37.845Z,98957.27
2018-06-11T03:35:06.434Z,98954.89
2018-06-11T03:37:35.022Z,98949.43
2018-06-11T03:40:03.678Z,98953.90
2018-06-11T03:42:32.281Z,98953.07
2018-06-11T03:45:00.865Z,98959.22
2018-06-11T03:47:30.042Z,98960.08
2018-06-11T03:49:58.620Z,98965.07
2018-06-11T03:52:27.266Z,98967.33
2018-06-11T03:54:55.861Z,98960.37
2018-06-11T03:57:24.480Z,98973.02
2018-06-11T03:59:53.106Z,98973.95
2018-06-11T04:02:21.842Z,98975.31
2018-06-11T04:04:50.430Z,98976.92
2018-06-11T04:07:19.573Z,98972.54
2018-06-11T04:09:48.209Z,98977.55
2018-06-11T04:12:16.894Z,98974.34
2018-06-11T04:14:45.516Z,98973.03
2018-06-11T04:17:14.165Z,98983.27
2018-06-11T04:19:42.749Z,98982.20
2018-06-11T04:22:11.320Z,98989.94
2018-06-11T04:24:39.938Z,98988.13
2018-06-11T04:27:08.572Z,98996.03
2018-06-11T04:29:38.055Z,99006.02
2018-06-11T04:32:06.678Z,99009.09
2018-06-11T04:34:35.271Z,99010.16
2018-06-11T04:37:03.835Z,99010.86
2018-06-11T04:39:32.397Z,99013.84
2018-06-11T04:42:00.993Z,99017.39
2018-06-11T04:44:29.569Z,99015.62
2018-06-11T04:46:58.185Z,99018.82
2018-06-11T04:49:26.792Z,99021.66
2018-06-11T04:51:55.366Z,99020.80
2018-06-11T04:54:23.968Z,99031.27
2018-06-11T04:56:52.546Z,99037.44
2018-06-11T04:59:21.141Z,99035.06
2018-06-11T05:01:50.188Z,99038.52
2018-06-11T05:04:18.770Z,99030.42
2018-06-11T05:06:47.374Z,99034.37
2018-06-11T05:09:16.029Z,99037.02
2018-06-11T05:11:44.618Z,99040.91
2018-06-11T05:14:13.257Z,99046.85
2018-06-11T05:16:41.819Z,99054.09
2018-06-11T05:19:10.414Z,99054.09
2018-06-11T05:21:39.029Z,99053.48
2018-06-11T05:24:07.656Z,99051.80
2018-06-11T05:26:36.214Z,99049.27
2018-06-11T05:29:04.811Z,99063.98
2018-06-11T05:31:33.457Z,99065.51
2018-06-11T05:34:02.247Z,99060.52
2018-06-11T05:36:31.414Z,99063.00
2018-06-11T05:39:00.046Z,99060.06
2018-06-11T05:41:28.672Z,99056.53
2018-06-11T05:43:57.553Z,99060.39
2018-06-11T05:46:26.150Z,99062.58
2018-06-11T05:48:54.759Z,99064.07
2018-06-11T06:04:13.552Z,99066.03
2018-06-11T06:06:42.157Z,99063.70
2018-06-11T06:09:10.779Z,99072.22
2018-06-11T06:11:39.390Z,99073.24
2018-06-11T06:14:08.076Z,99069.95
2018-06-11T06:16:36.736Z,99069.21
2018-06-11T06:19:05.849Z,99070.69
2018-06-11T06:21:34.520Z,99071.73
2018-06-11T06:24:03.159Z,99069.33
2018-06-11T06:26:31.815Z,99068.12
2018-06-11T06:29:00.435Z,99074.20
2018-06-11T06:31:29.226Z,99061.63
2018-06-11T06:33:57.904Z,99066.57
2018-06-11T06:36:26.595Z,99067.67
2018-06-11T06:38:55.224Z,99071.43
2018-06-11T06:41:23.866Z,99064.36
2018-06-11T06:43:52.543Z,99064.16
2018-06-11T06:46:21.241Z,99060.85
2018-06-11T06:48:49.921Z,99059.34
2018-06-11T06:51:18.615Z,99054.09
2018-06-11T06:53:47.357Z,99051.03
2018-06-11T06:56:15.989Z,99051.05
2018-06-11T06:58:44.669Z,99044.15
2018-06-11T07:01:13.307Z,99041.62
2018-06-11T07:03:42.045Z,99045.42
2018-06-11T07:06:10.756Z,99044.92
2018-06-11T07:08:39.414Z,99045.47
2018-06-11T07:11:08.104Z,99043.42
2018-06-11T07:13:36.889Z,99035.70
2018-06-11T07:16:05.552Z,99036.23
2018-06-11T07:18:34.185Z,99033.00
2018-06-11T07:21:02.862Z,99036.58
2018-06-11T07:23:31.565Z,99036.02
2018-06-11T07:26:00.213Z,99026.68
2018-06-11T07:28:28.887Z,99020.67
2018-06-11T07:30:57.533Z,99024.56
2018-06-11T07:33:26.312Z,99016.45
2018-06-11T07:35:54.988Z,99018.39
2018-06-11T07:38:23.710Z,99019.59
2018-06-11T07:40:52.330Z,99011.55
2018-06-11T07:43:20.958Z,99005.58
2018-06-11T07:45:49.598Z,99012.27
2018-06-11T07:48:18.250Z,99004.86
2018-06-11T07:50:46.924Z,99004.79
2018-06-11T07:53:15.597Z,99000.96
2018-06-11T07:55:44.255Z,99001.19
2018-06-11T07:58:13.373Z,98999.56
2018-06-11T08:00:42.095Z,98998.56
2018-06-11T08:03:10.740Z,99011.47
2018-06-11T08:05:39.476Z,98996.09
2018-06-11T08:08:08.176Z,99000.70
2018-06-11T08:10:37.055Z,98999.02
2018-06-11T08:13:05.722Z,98988.88
2018-06-11T08:15:34.398Z,98992.27
2018-06-11T08:18:03.085Z,98989.55
2018-06-11T08:20:31.759Z,98991.12
2018-06-11T08:23:00.422Z,98993.40
2018-06-11T08:25:29.139Z,98990.73
2018-06-11T08:27:57.865Z,98985.71
2018-06-11T08:30:26.665Z,98988.42
2018-06-11T08:32:55.342Z,98990.05
2018-06-11T08:35:23.987Z,98992.75
2018-06-11T08:37:52.660Z,98990.50
2018-06-11T08:40:21.378Z,98990.72
2018-06-11T08:42:50.043Z,98994.32
2018-06-11T08:45:18.734Z,98984.92
2018-06-11T08:47:47.408Z,98987.32
2018-06-11T08:50:16.219Z,98995.45
2018-06-11T08:52:44.892Z,98995.66
2018-06-11T08:55:13.577Z,98991.61
2018-06-11T08:57:42.239Z,98986.45
2018-06-11T09:00:10.984Z,98978.77
2018-06-11T09:02:39.629Z,98982.23
2018-06-11T09:05:08.272Z,98980.78
2018-06-11T09:07:36.929Z,98971.87
2018-06-11T09:10:05.704Z,98969.75
2018-06-11T09:12:34.390Z,98970.69
2018-06-11T09:15:03.014Z,98974.37
2018-06-11T09:17:31.676Z,98974.67
2018-06-11T09:20:00.339Z,98970.59
2018-06-11T09:22:29.021Z,98972.89
2018-06-11T09:24:57.745Z,98968.23
2018-06-11T09:27:26.431Z,98972.01
2018-06-11T09:29:55.123Z,98979.09
2018-06-11T09:32:23.801Z,98979.21
2018-06-11T09:34:52.558Z,98979.53
2018-06-11T09:37:21.234Z,98979.26
2018-06-11T09:39:49.863Z,98977.52
2018-06-11T09:42:18.526Z,98978.09
2018-06-11T09:44:47.215Z,98976.05
2018-06-11T09:47:15.893Z,98978.70
2018-06-11T09:49:44.583Z,98986.99
2018-06-11T09:52:13.293Z,98988.64
2018-06-11T09:54:41.993Z,98976.49
2018-06-11T09:57:10.640Z,98986.74
2018-06-11T09:59:39.258Z,98985.25
2018-06-11T10:02:07.930Z,98980.76
2018-06-11T10:04:36.535Z,98985.06
2018-06-11T10:07:05.182Z,98983.09
2018-06-11T10:09:33.860Z,98990.19
2018-06-11T10:12:02.531Z,98995.63
2018-06-11T10:14:31.199Z,98989.38
2018-06-11T10:17:00.674Z,98984.09
2018-06-11T10:19:29.381Z,98975.52
2018-06-11T10:21:58.687Z,98978.80
2018-06-11T10:24:29.325Z,98983.93
2018-06-11T10:27:02.986Z,98980.11
2018-06-11T10:32:13.201Z,98978.11
2018-06-11T10:34:48.806Z,98980.12
2018-06-11T10:37:17.587Z,98981.42
2018-06-11T10:39:46.612Z,98979.92
2018-06-11T10:42:16.443Z,98983.94
2018-06-11T10:44:45.125Z,98978.48
2018-06-11T10:47:13.799Z,98975.84
2018-06-11T10:49:42.588Z,98970.03
2018-06-11T10:52:11.258Z,98967.25
2018-06-11T10:54:40.378Z,98966.27
2018-06-11T10:57:09.136Z,98971.37
2018-06-11T10:59:37.810Z,98969.00
2018-06-11T11:02:06.528Z,98964.03
2018-06-11T11:04:35.215Z,98975.50
2018-06-11T11:07:03.883Z,98977.38
2018-06-11T11:09:33.635Z,98973.17
2018-06-11T11:12:07.743Z,98977.19
2018-06-11T11:14:37.759Z,98987.28
2018-06-11T11:17:07.446Z,98979.50
2018-06-11T11:19:39.460Z,98968.40
2018-06-11T11:22:12.316Z,98953.45
2018-06-11T11:24:46.109Z,98950.11
2018-06-11T11:27:14.908Z,98948.02
2018-06-11T11:29:43.533Z,98950.41
2018-06-11T11:32:13.308Z,98962.05
2018-06-11T11:34:44.786Z,98958.56
2018-06-11T11:37:14.787Z,98952.62
2018-06-11T11:39:44.387Z,98951.75
2018-06-11T11:42:14.402Z,98945.73
2018-06-11T11:44:45.084Z,98941.29
2018-06-11T11:47:16.348Z,98943.45
2018-06-11T11:49:46.582Z,98949.08
2018-06-11T11:52:17.075Z,98949.84
2018-06-11T11:54:54.799Z,98941.66
2018-06-11T11:57:23.596Z,98948.27
2018-06-11T11:59:52.298Z,98941.31
2018-06-11T12:02:21.068Z,98931.60
2018-06-11T12:04:49.750Z,98928.27
2018-06-11T12:07:18.389Z,98926.14
2018-06-11T12:09:47.170Z,98906.20
2018-06-11T12:12:15.811Z,98909.86
2018-06-11T12:14:45.434Z,98911.62
2018-06-11T12:17:14.122Z,98908.50
2018-06-11T12:19:42.958Z,98896.19
2018-06-11T12:22:11.730Z,98889.28
2018-06-11T12:24:40.460Z,98880.88
2018-06-11T12:27:09.279Z,98871.62
2018-06-11T12:29:38.085Z,98870.58
2018-06-11T12:32:09.306Z,98867.92
2018-06-11T12:34:38.023Z,98857.53
2018-06-11T12:37:06.763Z,98858.53
2018-06-11T12:39:35.705Z,98845.58
2018-06-11T12:42:04.385Z,98846.70
2018-06-11T12:44:33.168Z,98849.24
2018-06-11T12:47:01.918Z,98848.20
2018-06-11T12:49:30.640Z,98844.81
2018-06-11T12:51:59.335Z,98842.47
2018-06-11T12:54:28.162Z,98835.02
2018-06-11T12:56:56.911Z,98834.84
2018-06-11T12:59:31.242Z,98832.23
2018-06-11T13:01:59.911Z,98830.83
2018-06-11T13:04:28.669Z,98831.79
2018-06-11T13:06:57.530Z,98835.45
2018-06-11T13:09:26.278Z,98830.70
2018-06-11T13:11:55.076Z,98833.84
2018-06-11T13:14:23.775Z,98835.16
2018-06-11T13:16:53.009Z,98836.03
2018-06-11T13:19:21.729Z,98832.78
2018-06-11T13:21:50.442Z,98830.34
2018-06-11T13:24:19.183Z,98824.23
2018-06-11T13:26:48.023Z,98818.88
2018-06-11T13:29:16.711Z,98820.30
2018-06-11T13:31:45.423Z,98821.02
2018-06-11T13:34:14.058Z,98816.88
2018-06-11T13:36:42.769Z,98821.16
2018-06-11T13:39:11.393Z,98819.70
2018-06-11T13:41:40.205Z,98816.50
2018-06-11T13:44:08.899Z,98804.53
2018-06-11T13:46:37.638Z,98799.47
2018-06-11T13:49:06.338Z,98801.37
2018-06-11T13:51:35.030Z,98806.55
2018-06-11T13:54:03.698Z,98799.51
2018-06-11T13:56:32.384Z,98793.96
2018-06-11T13:59:01.107Z,98796.85
2018-06-11T14:01:29.965Z,98797.56
2018-06-11T14:03:58.773Z,98797.83
2018-06-11T14:06:27.470Z,98795.86
2018-06-11T14:08:56.119Z,98785.92
2018-06-11T14:11:24.813Z,98795.55
2018-06-11T14:13:53.451Z,98789.19
2018-06-11T14:16:22.114Z,98783.15
2018-06-11T14:18:50.763Z,98779.95
2018-06-11T14:21:19.482Z,98781.11
2018-06-11T14:23:48.144Z,98791.18
2018-06-11T14:26:16.791Z,98779.67
2018-06-11T14:28:46.439Z,98777.67
2018-06-11T14:31:17.347Z,98776.44
2018-06-11T14:33:46.065Z,98775.87
2018-06-11T14:36:14.739Z,98776.52
2018-06-11T14:38:43.452Z,98775.34
2018-06-11T14:41:12.206Z,98773.47
2018-06-11T14:43:40.825Z,98774.05
2018-06-11T14:46:09.617Z,98779.14
2018-06-11T14:48:38.266Z,98769.31
2018-06-11T14:51:07.037Z,98768.55
2018-06-11T14:53:35.802Z,98760.15
2018-06-11T14:56:04.560Z,98764.79
2018-06-11T14:58:35.364Z,98757.22
2018-06-11T15:01:06.240Z,98753.37
2018-06-11T15:03:38.712Z,98743.81
2018-06-11T15:06:11.565Z,98742.64
2018-06-11T15:08:43.876Z,98743.01
2018-06-11T15:11:16.175Z,98734.36
2018-06-11T15:13:50.287Z,98734.63
2018-06-11T15:16:19.360Z,98724.81
2018-06-11T15:18:52.104Z,98727.53
2018-06-11T15:21:24.721Z,98728.22
2018-06-11T15:23:57.813Z,98731.92
2018-06-11T15:26:30.323Z,98733.84
2018-06-11T15:29:06.468Z,98734.78
2018-06-11T15:31:40.726Z,98728.84
2018-06-11T15:34:11.008Z,98722.10
2018-06-11T15:36:42.415Z,98717.88
2018-06-11T15:39:13.102Z,98713.41
2018-06-11T15:41:46.455Z,98715.72
2018-06-11T15:44:19.355Z,98707.58
2018-06-11T15:46:50.169Z,98705.64
2018-06-11T15:49:19.210Z,98707.84
2018-06-11T15:51:48.488Z,98706.92
2018-06-11T15:54:17.194Z,98701.86
2018-06-11T15:56:46.347Z,98702.73
2018-06-11T15:59:15.037Z,98699.80
2018-06-11T16:01:43.687Z,98702.61
2018-06-11T16:04:12.383Z,98697.31
2018-06-11T16:06:41.032Z,98695.34
2018-06-11T16:09:09.680Z,98685.31
2018-06-11T16:11:38.458Z,98686.17
2018-06-11T16:14:07.155Z,98684.11
2018-06-11T16:16:35.911Z,98678.55
2018-06-11T16:19:04.542Z,98671.70
2018-06-11T16:21:33.208Z,98669.64
2018-06-11T16:24:01.860Z,98658.58
2018-06-11T16:26:30.555Z,98656.45
2018-06-11T16:28:59.177Z,98663.43
2018-06-11T16:31:27.860Z,98664.94
2018-06-11T16:33:56.789Z,98658.12
2018-06-11T16:36:25.433Z,98661.95
2018-06-11T16:38:54.121Z,98662.00
2018-06-11T16:41:23.423Z,98663.67
2018-06-11T16:43:52.219Z,98662.13
2018-06-11T16:46:20.882Z,98660.27
2018-06-11T16:48:49.601Z,98653.31
2018-06-11T16:51:18.200Z,98651.66
2018-06-11T16:53:46.896Z,98650.16
2018-06-11T16:56:15.979Z,98652.02
2018-06-11T16:58:44.652Z,98658.20
2018-06-11T17:01:13.308Z,98662.27
2018-06-11T17:03:42.089Z,98663.23
2018-06-11T17:06:10.780Z,98656.32
2018-06-11T17:08:39.477Z,98650.38
2018-06-11T17:11:08.191Z,98647.98
2018-06-11T17:13:36.974Z,98642.52
2018-06-11T17:16:05.668Z,98648.89
2018-06-11T17:18:34.416Z,98643.59
2018-06-11T17:21:03.078Z,98637.41
2018-06-11T17:23:31.819Z,98632.56
2018-06-11T17:26:00.547Z,98622.67
2018-06-11T17:28:29.162Z,98619.77
2018-06-11T17:30:57.759Z,98619.00
2018-06-11T17:33:26.439Z,98615.17
2018-06-11T17:35:55.607Z,98616.70
2018-06-11T17:38:24.324Z,98623.47
2018-06-11T17:40:53.001Z,98615.66
2018-06-11T17:43:21.702Z,98618.98
2018-06-11T17:45:50.368Z,98624.77
2018-06-11T17:48:19.067Z,98633.84
2018-06-11T17:50:47.680Z,98632.69
2018-06-11T17:53:16.291Z,98622.48
2018-06-11T17:55:44.954Z,98618.38
2018-06-11T17:58:13.621Z,98622.83
2018-06-11T18:00:42.303Z,98629.66
2018-06-11T18:03:10.989Z,98626.39
2018-06-11T18:05:40.028Z,98640.30
2018-06-11T18:08:08.779Z,98638.92
2018-06-11T18:10:37.527Z,98641.28
2018-06-11T18:13:06.253Z,98638.46
2018-06-11T18:15:35.018Z,98632.84
2018-06-11T18:18:03.718Z,98629.94
2018-06-11T18:20:32.501Z,98630.83
2018-06-11T18:23:01.133Z,98624.08
2018-06-11T18:25:31.617Z,98619.32
2018-06-11T18:28:00.368Z,98626.07
2018-06-11T18:33:18.415Z,98608.08
2018-06-11T18:35:48.184Z,98621.37
2018-06-11T18:38:19.011Z,98619.66
2018-06-11T18:40:48.054Z,98621.76
2018-06-11T18:43:16.794Z,98628.77
2018-06-11T18:45:45.562Z,98626.88
2018-06-11T18:48:15.280Z,98621.71
2018-06-11T18:50:45.758Z,98619.14
2018-06-11T18:53:16.063Z,98625.84
2018-06-11T18:55:46.518Z,98622.66
2018-06-11T18:58:15.222Z,98615.25
2018-06-11T19:00:43.914Z,98614.28
2018-06-11T19:03:13.034Z,98618.84
2018-06-11T19:05:41.860Z,98618.34
2018-06-11T19:08:12.452Z,98624.50
2018-06-11T19:10:42.454Z,98619.32
2018-06-11T19:13:11.397Z,98615.55
2018-06-11T19:15:42.005Z,98609.05
2018-06-11T19:18:12.082Z,98611.67
2018-06-11T19:20:40.874Z,98616.93
2018-06-11T19:23:09.664Z,98614.77
2018-06-11T19:25:39.643Z,98607.61
2018-06-11T19:28:09.359Z,98610.69
2018-06-11T19:30:38.151Z,98609.78
2018-06-11T19:33:07.319Z,98605.66
2018-06-11T19:35:36.715Z,98613.17
2018-06-11T19:38:05.879Z,98608.22
2018-06-11T19:40:35.106Z,98615.23
2018-06-11T19:43:03.913Z,98616.88
2018-06-11T19:45:32.714Z,98615.75
2018-06-11T19:48:01.528Z,98621.92
2018-06-11T19:50:30.326Z,98619.97
2018-06-11T19:52:59.319Z,98626.34
2018-06-11T19:55:28.087Z,98615.05
2018-06-11T19:57:56.752Z,98615.07
2018-06-11T20:00:25.437Z,98614.69
2018-06-11T20:02:54.938Z,98602.22
2018-06-11T20:05:23.673Z,98598.37
2018-06-11T20:07:52.491Z,98595.21
2018-06-11T20:10:21.293Z,98588.39
2018-06-11T20:12:50.111Z,98584.18
2018-06-11T20:15:18.877Z,98571.25
2018-06-11T20:17:47.638Z,98571.13
2018-06-11T20:20:16.496Z,98570.11
2018-06-11T20:22:45.683Z,98563.27
2018-06-11T20:25:15.285Z,98555.50
2018-06-11T20:27:44.065Z,98552.87
2018-06-11T20:30:12.939Z,98546.45
2018-06-11T20:32:44.404Z,98557.52
2018-06-11T20:35:13.601Z,98552.78
2018-06-11T20:37:52.179Z,98555.27
2018-06-11T20:40:30.300Z,98551.59
2018-06-11T20:42:59.352Z,98551.52
2018-06-11T20:45:29.777Z,98548.87
2018-06-11T20:47:58.857Z,98542.92
2018-06-11T20:50:30.356Z,98548.13
2018-06-11T20:52:59.034Z,98549.76
2018-06-11T20:55:27.697Z,98550.25
2018-06-11T20:57:57.075Z,98544.75
2018-06-11T21:00:28.801Z,98541.38
2018-06-11T21:03:00.907Z,98528.84
2018-06-11T21:05:34.550Z,98528.61
2018-06-11T21:08:03.278Z,98530.51
2018-06-11T21:10:32.192Z,98526.58
2018-06-11T21:13:01.783Z,98526.19
2018-06-11T21:15:37.344Z,98525.23
2018-06-11T21:18:07.408Z,98524.20
2018-06-11T21:20:37.635Z,98519.36
2018-06-11T21:23:06.398Z,98523.97
2018-06-11T21:25:35.059Z,98523.65
2018-06-11T21:28:11.999Z,98524.48
2018-06-11T21:30:41.128Z,98526.75
2018-06-11T21:33:11.059Z,98520.36
2018-06-11T21:35:49.521Z,98518.09
2018-06-11T21:38:20.576Z,98520.12
2018-06-11T21:40:49.981Z,98514.60
2018-06-11T21:43:21.829Z,98515.80
2018-06-11T21:45:52.546Z,98517.27
2018-06-11T21:48:25.009Z,98507.27
2018-06-11T21:50:56.285Z,98498.63
2018-06-11T21:53:28.439Z,98491.36
2018-06-11T21:58:36.389Z,98489.02
2018-06-11T22:01:06.357Z,98483.03
2018-06-11T22:03:38.306Z,98483.03
2018-06-11T22:06:07.938Z,98474.57
2018-06-11T22:08:37.170Z,98470.80
2018-06-11T22:11:08.674Z,98466.92
2018-06-11T22:13:38.561Z,98469.95
2018-06-11T22:16:07.839Z,98468.03
2018-06-11T22:18:38.033Z,98463.98
2018-06-11T22:21:07.354Z,98455.58
2018-06-11T22:23:36.540Z,98440.55
2018-06-11T22:26:15.939Z,98442.56
2018-06-11T22:28:44.995Z,98427.69
2018-06-11T22:31:14.907Z,98428.67
2018-06-11T22:33:44.229Z,98430.37
2018-06-11T22:36:20.988Z,98424.81
2018-06-11T22:38:53.529Z,98416.62
2018-06-11T22:41:23.722Z,98412.08
2018-06-11T22:43:53.588Z,98409.66
2018-06-11T22:46:22.940Z,98403.47
2018-06-11T22:48:51.590Z,98404.35
2018-06-11T22:51:20.262Z,98403.75
2018-06-11T22:53:48.930Z,98399.51
2018-06-11T22:56:17.903Z,98396.69
2018-06-11T22:58:46.640Z,98398.98
2018-06-11T23:01:15.346Z,98393.04
2018-06-11T23:03:44.187Z,98391.14
2018-06-11T23:06:12.919Z,98395.53
2018-06-11T23:08:41.608Z,98388.38
2018-06-11T23:11:10.374Z,98392.93
2018-06-11T23:13:39.106Z,98390.36
2018-06-11T23:16:07.885Z,98385.59
2018-06-11T23:18:37.188Z,98378.59
2018-06-11T23:21:05.984Z,98373.59
2018-06-11T23:23:34.752Z,98378.61
2018-06-11T23:26:03.473Z,98373.45
2018-06-11T23:28:32.106Z,98373.57
2018-06-11T23:31:00.863Z,98380.52
2018-06-11T23:33:29.871Z,98377.10
2018-06-11T23:35:58.607Z,98375.91
2018-06-11T23:38:27.920Z,98369.86
2018-06-11T23:40:56.643Z,98374.52
2018-06-11T23:43:25.343Z,98370.28
2018-06-11T23:45:54.235Z,98365.20
2018-06-11T23:48:22.959Z,98359.72
2018-06-11T23:50:51.630Z,98363.30
2018-06-11T23:53:20.349Z,98365.43
2018-06-11T23:55:49.002Z,98375.41
2018-06-11T23:58:17.691Z,98397.28
